Chatta, Tennessee
Current Conditions -  °F | °C
As of 12:53 AM on Friday 28 Nov 2014 (Local Time) from KCHA Reporting Station
Overcast Overcast  
Wind Chill: 25°   Ceiling: 3200
Heat Index: 33°   Visibility: 10mi
Dew Point: 20°   Wind: 10mph
Humidity: 59%   Direction: 360°N
Pressure: 30.43"   Gusts: NA
Location:  35.0457°N, 85.3094°W
Report Text: KCHA 280553Z AUTO 36009KT 10SM OVC032 01/M07 A3043 RMK AO2 SLP308 T00061067 10028 20006 58002
Loading
Personal Weather Stations






























Interactive Weather Map New forecast layout! Learn more

10-Day Weather Forecast

Advertisements
Track Severe Weather on mobile